sensor_id;sensor_type;location;lat;lon;timestamp;pressure;altitude;pressure_sealevel;temperature;humidity
8717;BME280;4395;48.554;8.820;2023-04-26T00:01:53;95899.34;;;7.32;100.00
8717;BME280;4395;48.554;8.820;2023-04-26T00:03:57;95890.03;;;7.35;100.00
8717;BME280;4395;48.554;8.820;2023-04-26T00:06:01;95898.41;;;7.38;100.00
8717;BME280;4395;48.554;8.820;2023-04-26T00:08:06;95854.94;;;7.08;100.00
8717;BME280;4395;48.554;8.820;2023-04-26T00:10:10;95788.31;;;6.60;100.00
8717;BME280;4395;48.554;8.820;2023-04-26T00:12:13;95860.16;;;7.03;100.00
8717;BME280;4395;48.554;8.820;2023-04-26T00:14:15;95905.59;;;7.26;100.00
8717;BME280;4395;48.554;8.820;2023-04-26T00:16:20;95854.69;;;6.98;100.00
8717;BME280;4395;48.554;8.820;2023-04-26T00:18:23;95911.19;;;7.25;100.00
8717;BME280;4395;48.554;8.820;2023-04-26T00:20:25;95904.44;;;7.22;100.00
8717;BME280;4395;48.554;8.820;2023-04-26T00:22:28;95901.66;;;7.17;100.00
8717;BME280;4395;48.554;8.820;2023-04-26T00:24:32;95847.25;;;6.88;100.00
8717;BME280;4395;48.554;8.820;2023-04-26T00:26:35;95882.47;;;7.08;100.00
8717;BME280;4395;48.554;8.820;2023-04-26T00:28:38;95891.88;;;7.11;100.00
8717;BME280;4395;48.554;8.820;2023-04-26T00:30:41;95862.78;;;6.80;100.00
8717;BME280;4395;48.554;8.820;2023-04-26T00:32:49;95896.72;;;6.91;100.00
8717;BME280;4395;48.554;8.820;2023-04-26T00:34:52;95831.50;;;6.57;100.00
8717;BME280;4395;48.554;8.820;2023-04-26T00:36:55;95874.59;;;6.60;100.00
8717;BME280;4395;48.554;8.820;2023-04-26T00:38:58;95889.66;;;6.96;100.00
8717;BME280;4395;48.554;8.820;2023-04-26T00:41:02;95887.09;;;6.90;100.00
8717;BME280;4395;48.554;8.820;2023-04-26T00:43:05;95898.22;;;6.87;100.00
8717;BME280;4395;48.554;8.820;2023-04-26T00:45:08;95890.22;;;6.87;100.00
8717;BME280;4395;48.554;8.820;2023-04-26T00:47:11;95890.66;;;6.84;100.00
8717;BME280;4395;48.554;8.820;2023-04-26T00:49:18;95904.00;;;6.72;100.00
8717;BME280;4395;48.554;8.820;2023-04-26T00:51:22;95894.34;;;6.71;100.00
8717;BME280;4395;48.554;8.820;2023-04-26T00:53:25;95890.88;;;6.70;100.00
8717;BME280;4395;48.554;8.820;2023-04-26T00:55:29;95839.53;;;5.78;100.00
8717;BME280;4395;48.554;8.820;2023-04-26T00:57:32;95854.31;;;6.11;100.00
8717;BME280;4395;48.554;8.820;2023-04-26T00:59:35;95898.94;;;6.52;100.00
8717;BME280;4395;48.554;8.820;2023-04-26T01:01:39;95901.28;;;6.60;100.00
8717;BME280;4395;48.554;8.820;2023-04-26T01:03:43;95900.97;;;6.68;100.00
8717;BME280;4395;48.554;8.820;2023-04-26T01:05:49;95895.97;;;6.72;100.00
8717;BME280;4395;48.554;8.820;2023-04-26T01:07:52;95733.59;;;5.37;100.00
8717;BME280;4395;48.554;8.820;2023-04-26T01:09:56;95936.31;;;6.52;100.00
8717;BME280;4395;48.554;8.820;2023-04-26T01:12:02;95863.38;;;6.40;100.00
8717;BME280;4395;48.554;8.820;2023-04-26T01:14:06;95835.91;;;6.21;100.00
8717;BME280;4395;48.554;8.820;2023-04-26T01:16:09;95880.75;;;6.61;100.00
8717;BME280;4395;48.554;8.820;2023-04-26T01:18:14;95765.66;;;5.79;100.00
8717;BME280;4395;48.554;8.820;2023-04-26T01:20:16;95744.72;;;5.64;100.00
8717;BME280;4395;48.554;8.820;2023-04-26T01:22:21;95635.75;;;5.08;100.00
8717;BME280;4395;48.554;8.820;2023-04-26T01:24:25;95885.00;;;6.20;100.00
8717;BME280;4395;48.554;8.820;2023-04-26T01:26:30;95853.59;;;6.04;100.00
8717;BME280;4395;48.554;8.820;2023-04-26T01:28:33;95890.88;;;6.40;100.00
8717;BME280;4395;48.554;8.820;2023-04-26T01:30:38;95847.69;;;6.32;100.00
8717;BME280;4395;48.554;8.820;2023-04-26T01:32:41;95893.38;;;6.24;100.00
8717;BME280;4395;48.554;8.820;2023-04-26T01:34:44;95772.38;;;5.33;100.00
8717;BME280;4395;48.554;8.820;2023-04-26T01:36:47;95899.44;;;6.31;100.00
8717;BME280;4395;48.554;8.820;2023-04-26T01:38:50;95748.47;;;5.45;100.00
8717;BME280;4395;48.554;8.820;2023-04-26T01:40:56;95904.63;;;6.56;100.00
8717;BME280;4395;48.554;8.820;2023-04-26T01:42:59;95897.56;;;6.61;100.00
8717;BME280;4395;48.554;8.820;2023-04-26T01:45:04;95896.06;;;6.65;100.00
8717;BME280;4395;48.554;8.820;2023-04-26T01:47:27;95888.44;;;6.69;100.00
8717;BME280;4395;48.554;8.820;2023-04-26T01:49:30;95884.50;;;6.71;100.00
8717;BME280;4395;48.554;8.820;2023-04-26T01:51:33;95856.22;;;6.52;100.00
8717;BME280;4395;48.554;8.820;2023-04-26T01:53:36;95851.09;;;6.51;100.00
8717;BME280;4395;48.554;8.820;2023-04-26T01:55:39;95875.75;;;6.64;100.00
8717;BME280;4395;48.554;8.820;2023-04-26T01:57:44;95783.88;;;6.00;100.00
8717;BME280;4395;48.554;8.820;2023-04-26T01:59:47;95883.63;;;6.59;100.00
8717;BME280;4395;48.554;8.820;2023-04-26T02:01:50;95808.59;;;6.07;100.00
8717;BME280;4395;48.554;8.820;2023-04-26T02:03:53;95842.88;;;6.22;100.00
8717;BME280;4395;48.554;8.820;2023-04-26T02:05:56;95883.81;;;6.46;100.00
8717;BME280;4395;48.554;8.820;2023-04-26T02:08:00;95693.69;;;5.31;100.00
8717;BME280;4395;48.554;8.820;2023-04-26T02:10:03;95808.91;;;5.99;100.00
8717;BME280;4395;48.554;8.820;2023-04-26T02:12:06;95772.03;;;5.78;100.00
8717;BME280;4395;48.554;8.820;2023-04-26T02:14:11;95891.75;;;6.04;100.00
8717;BME280;4395;48.554;8.820;2023-04-26T02:16:14;95805.19;;;5.09;100.00
8717;BME280;4395;48.554;8.820;2023-04-26T02:18:19;95840.63;;;5.53;100.00
8717;BME280;4395;48.554;8.820;2023-04-26T02:20:24;95894.25;;;5.81;100.00
8717;BME280;4395;48.554;8.820;2023-04-26T02:22:27;95872.88;;;5.26;100.00
8717;BME280;4395;48.554;8.820;2023-04-26T02:24:30;95790.28;;;4.83;100.00
8717;BME280;4395;48.554;8.820;2023-04-26T02:26:36;95885.06;;;5.77;100.00
8717;BME280;4395;48.554;8.820;2023-04-26T02:28:40;95898.44;;;5.95;100.00
8717;BME280;4395;48.554;8.820;2023-04-26T02:30:45;95914.50;;;6.07;100.00
8717;BME280;4395;48.554;8.820;2023-04-26T02:32:47;95903.47;;;6.03;100.00
8717;BME280;4395;48.554;8.820;2023-04-26T02:34:51;95849.75;;;5.45;100.00
8717;BME280;4395;48.554;8.820;2023-04-26T02:36:54;95897.06;;;5.86;100.00
8717;BME280;4395;48.554;8.820;2023-04-26T02:38:57;95852.63;;;5.80;100.00
8717;BME280;4395;48.554;8.820;2023-04-26T02:41:02;95901.91;;;6.14;100.00
8717;BME280;4395;48.554;8.820;2023-04-26T02:43:06;95856.34;;;5.97;100.00
8717;BME280;4395;48.554;8.820;2023-04-26T02:45:12;95768.16;;;5.44;100.00
8717;BME280;4395;48.554;8.820;2023-04-26T02:47:17;95817.22;;;5.73;100.00
8717;BME280;4395;48.554;8.820;2023-04-26T02:49:21;95899.72;;;6.41;100.00
8717;BME280;4395;48.554;8.820;2023-04-26T02:51:25;95851.72;;;5.86;100.00
8717;BME280;4395;48.554;8.820;2023-04-26T02:53:29;95864.69;;;6.19;100.00
8717;BME280;4395;48.554;8.820;2023-04-26T02:55:33;95836.94;;;5.90;100.00
8717;BME280;4395;48.554;8.820;2023-04-26T02:57:36;95887.75;;;6.13;100.00
8717;BME280;4395;48.554;8.820;2023-04-26T02:59:41;95884.31;;;6.25;100.00
8717;BME280;4395;48.554;8.820;2023-04-26T03:01:44;95774.59;;;5.55;100.00
8717;BME280;4395;48.554;8.820;2023-04-26T03:03:48;95889.69;;;6.06;100.00
8717;BME280;4395;48.554;8.820;2023-04-26T03:05:52;95893.44;;;6.17;100.00
8717;BME280;4395;48.554;8.820;2023-04-26T03:07:55;95780.22;;;5.46;100.00
8717;BME280;4395;48.554;8.820;2023-04-26T03:09:58;95846.28;;;5.99;100.00
8717;BME280;4395;48.554;8.820;2023-04-26T03:12:02;95687.31;;;4.77;100.00
8717;BME280;4395;48.554;8.820;2023-04-26T03:14:05;95885.97;;;6.07;100.00
8717;BME280;4395;48.554;8.820;2023-04-26T03:16:08;95888.88;;;6.06;100.00
8717;BME280;4395;48.554;8.820;2023-04-26T03:18:11;95884.41;;;5.63;100.00
8717;BME280;4395;48.554;8.820;2023-04-26T03:20:16;95856.41;;;5.72;100.00
8717;BME280;4395;48.554;8.820;2023-04-26T03:22:19;95887.00;;;6.06;100.00
8717;BME280;4395;48.554;8.820;2023-04-26T03:24:22;95885.25;;;6.00;100.00
8717;BME280;4395;48.554;8.820;2023-04-26T03:26:25;95747.50;;;5.21;100.00
8717;BME280;4395;48.554;8.820;2023-04-26T03:28:28;95662.38;;;4.53;100.00
8717;BME280;4395;48.554;8.820;2023-04-26T03:30:31;95639.13;;;4.24;100.00
8717;BME280;4395;48.554;8.820;2023-04-26T03:32:35;95873.00;;;6.11;100.00
8717;BME280;4395;48.554;8.820;2023-04-26T03:34:39;95814.13;;;5.76;100.00
8717;BME280;4395;48.554;8.820;2023-04-26T03:36:43;95837.97;;;5.71;100.00
8717;BME280;4395;48.554;8.820;2023-04-26T03:38:46;95876.28;;;5.95;100.00
8717;BME280;4395;48.554;8.820;2023-04-26T03:40:50;95874.44;;;5.95;100.00
8717;BME280;4395;48.554;8.820;2023-04-26T03:42:54;95911.78;;;5.95;100.00
8717;BME280;4395;48.554;8.820;2023-04-26T03:44:57;95872.81;;;5.94;100.00
8717;BME280;4395;48.554;8.820;2023-04-26T03:47:00;95829.44;;;5.62;100.00
8717;BME280;4395;48.554;8.820;2023-04-26T03:49:03;95875.75;;;5.86;100.00
8717;BME280;4395;48.554;8.820;2023-04-26T03:51:06;95882.56;;;5.82;100.00
8717;BME280;4395;48.554;8.820;2023-04-26T03:53:10;95882.19;;;5.78;100.00
8717;BME280;4395;48.554;8.820;2023-04-26T03:55:13;95873.22;;;5.73;100.00
8717;BME280;4395;48.554;8.820;2023-04-26T03:57:16;95780.94;;;5.17;100.00
8717;BME280;4395;48.554;8.820;2023-04-26T03:59:19;95855.75;;;5.59;100.00
8717;BME280;4395;48.554;8.820;2023-04-26T04:01:22;95864.34;;;5.61;100.00
8717;BME280;4395;48.554;8.820;2023-04-26T04:03:25;95875.31;;;5.71;100.00
8717;BME280;4395;48.554;8.820;2023-04-26T04:05:30;95871.28;;;5.62;100.00
8717;BME280;4395;48.554;8.820;2023-04-26T04:07:34;95738.63;;;4.41;100.00
8717;BME280;4395;48.554;8.820;2023-04-26T04:09:38;95873.66;;;5.70;100.00
8717;BME280;4395;48.554;8.820;2023-04-26T04:11:42;95868.56;;;5.68;100.00
8717;BME280;4395;48.554;8.820;2023-04-26T04:13:47;95690.84;;;4.52;100.00
8717;BME280;4395;48.554;8.820;2023-04-26T04:15:50;95840.19;;;5.12;100.00
8717;BME280;4395;48.554;8.820;2023-04-26T04:17:53;95720.06;;;4.34;100.00
8717;BME280;4395;48.554;8.820;2023-04-26T04:19:56;95891.75;;;5.25;100.00
8717;BME280;4395;48.554;8.820;2023-04-26T04:21:59;95874.84;;;5.37;100.00
8717;BME280;4395;48.554;8.820;2023-04-26T04:24:03;95886.25;;;5.44;100.00
8717;BME280;4395;48.554;8.820;2023-04-26T04:26:07;95949.06;;;5.34;100.00
8717;BME280;4395;48.554;8.820;2023-04-26T04:28:13;95741.78;;;4.31;100.00
8717;BME280;4395;48.554;8.820;2023-04-26T04:30:18;95891.31;;;5.28;100.00
8717;BME280;4395;48.554;8.820;2023-04-26T04:32:21;95858.75;;;5.01;100.00
8717;BME280;4395;48.554;8.820;2023-04-26T04:34:26;95887.13;;;5.13;100.00
8717;BME280;4395;48.554;8.820;2023-04-26T04:36:29;95883.38;;;5.21;100.00
8717;BME280;4395;48.554;8.820;2023-04-26T04:38:32;95783.44;;;4.44;100.00
8717;BME280;4395;48.554;8.820;2023-04-26T04:40:37;95883.19;;;5.16;100.00
8717;BME280;4395;48.554;8.820;2023-04-26T04:42:42;95895.50;;;5.17;100.00
8717;BME280;4395;48.554;8.820;2023-04-26T04:44:47;95895.59;;;5.04;100.00
8717;BME280;4395;48.554;8.820;2023-04-26T04:46:51;95712.53;;;3.75;100.00
8717;BME280;4395;48.554;8.820;2023-04-26T04:48:54;95722.94;;;3.76;100.00
8717;BME280;4395;48.554;8.820;2023-04-26T04:50:57;95887.66;;;4.72;100.00
8717;BME280;4395;48.554;8.820;2023-04-26T04:53:00;95901.38;;;5.01;100.00
8717;BME280;4395;48.554;8.820;2023-04-26T04:55:04;95903.69;;;5.22;100.00
8717;BME280;4395;48.554;8.820;2023-04-26T04:57:09;95903.41;;;5.30;100.00
8717;BME280;4395;48.554;8.820;2023-04-26T04:59:14;95901.91;;;5.34;100.00
8717;BME280;4395;48.554;8.820;2023-04-26T05:01:17;95899.78;;;5.43;100.00
8717;BME280;4395;48.554;8.820;2023-04-26T05:03:24;95905.50;;;5.46;100.00
8717;BME280;4395;48.554;8.820;2023-04-26T05:05:27;95902.69;;;5.41;100.00
8717;BME280;4395;48.554;8.820;2023-04-26T05:07:30;95898.97;;;5.42;100.00
8717;BME280;4395;48.554;8.820;2023-04-26T05:09:34;95902.38;;;5.49;100.00
8717;BME280;4395;48.554;8.820;2023-04-26T05:11:38;95903.94;;;5.39;100.00
8717;BME280;4395;48.554;8.820;2023-04-26T05:13:43;95920.50;;;5.16;100.00
8717;BME280;4395;48.554;8.820;2023-04-26T05:15:48;95881.84;;;5.07;100.00
8717;BME280;4395;48.554;8.820;2023-04-26T05:17:51;95917.50;;;5.06;100.00
8717;BME280;4395;48.554;8.820;2023-04-26T05:19:58;95914.00;;;5.37;100.00
8717;BME280;4395;48.554;8.820;2023-04-26T05:22:03;95917.47;;;5.37;100.00
8717;BME280;4395;48.554;8.820;2023-04-26T05:24:06;95925.69;;;5.36;100.00
8717;BME280;4395;48.554;8.820;2023-04-26T05:26:12;95921.34;;;5.41;100.00
8717;BME280;4395;48.554;8.820;2023-04-26T05:28:24;95924.25;;;5.08;100.00
8717;BME280;4395;48.554;8.820;2023-04-26T05:30:58;95908.88;;;5.35;100.00
8717;BME280;4395;48.554;8.820;2023-04-26T05:33:20;95929.22;;;5.30;100.00
8717;BME280;4395;48.554;8.820;2023-04-26T05:35:29;95900.97;;;5.47;100.00
8717;BME280;4395;48.554;8.820;2023-04-26T05:37:32;95895.00;;;5.70;100.00
8717;BME280;4395;48.554;8.820;2023-04-26T05:39:35;95928.53;;;6.02;100.00
8717;BME280;4395;48.554;8.820;2023-04-26T05:41:37;95938.44;;;6.13;100.00
8717;BME280;4395;48.554;8.820;2023-04-26T05:43:40;95938.09;;;6.10;100.00
8717;BME280;4395;48.554;8.820;2023-04-26T05:45:49;95845.38;;;5.51;100.00
8717;BME280;4395;48.554;8.820;2023-04-26T05:47:54;95900.97;;;5.90;100.00
8717;BME280;4395;48.554;8.820;2023-04-26T05:49:58;95948.41;;;5.81;100.00
8717;BME280;4395;48.554;8.820;2023-04-26T05:52:01;95937.59;;;5.76;100.00
8717;BME280;4395;48.554;8.820;2023-04-26T05:54:05;95939.34;;;6.07;100.00
8717;BME280;4395;48.554;8.820;2023-04-26T05:56:08;95943.63;;;6.27;100.00
8717;BME280;4395;48.554;8.820;2023-04-26T05:58:11;95945.81;;;6.48;100.00
8717;BME280;4395;48.554;8.820;2023-04-26T06:00:15;95905.91;;;6.23;100.00
8717;BME280;4395;48.554;8.820;2023-04-26T06:02:21;95944.59;;;6.62;100.00
8717;BME280;4395;48.554;8.820;2023-04-26T06:04:26;95950.53;;;6.64;100.00
8717;BME280;4395;48.554;8.820;2023-04-26T06:06:36;95951.25;;;6.71;100.00
8717;BME280;4395;48.554;8.820;2023-04-26T06:08:41;95950.66;;;6.69;100.00
8717;BME280;4395;48.554;8.820;2023-04-26T06:10:45;95955.16;;;6.87;100.00
8717;BME280;4395;48.554;8.820;2023-04-26T06:12:48;95951.34;;;6.95;100.00
8717;BME280;4395;48.554;8.820;2023-04-26T06:14:52;95950.06;;;6.97;100.00
8717;BME280;4395;48.554;8.820;2023-04-26T06:16:58;95960.41;;;7.05;100.00
8717;BME280;4395;48.554;8.820;2023-04-26T06:19:02;95922.97;;;6.94;100.00
8717;BME280;4395;48.554;8.820;2023-04-26T06:21:06;95865.19;;;6.28;100.00
8717;BME280;4395;48.554;8.820;2023-04-26T06:23:10;95966.69;;;6.99;100.00
8717;BME280;4395;48.554;8.820;2023-04-26T06:25:13;95968.94;;;6.84;100.00
8717;BME280;4395;48.554;8.820;2023-04-26T06:27:16;95972.16;;;6.74;100.00
8717;BME280;4395;48.554;8.820;2023-04-26T06:29:21;95977.50;;;7.04;100.00
8717;BME280;4395;48.554;8.820;2023-04-26T06:31:24;95975.13;;;7.26;100.00
8717;BME280;4395;48.554;8.820;2023-04-26T06:33:28;95967.81;;;7.45;100.00
8717;BME280;4395;48.554;8.820;2023-04-26T06:35:31;95967.38;;;7.60;100.00
8717;BME280;4395;48.554;8.820;2023-04-26T06:37:37;95966.56;;;7.71;100.00
8717;BME280;4395;48.554;8.820;2023-04-26T06:39:41;95961.09;;;7.78;100.00
8717;BME280;4395;48.554;8.820;2023-04-26T06:41:45;95960.38;;;7.59;100.00
8717;BME280;4395;48.554;8.820;2023-04-26T06:43:58;95954.56;;;7.73;100.00
8717;BME280;4395;48.554;8.820;2023-04-26T06:46:04;95962.84;;;7.95;100.00
8717;BME280;4395;48.554;8.820;2023-04-26T06:48:07;95956.78;;;8.12;100.00
8717;BME280;4395;48.554;8.820;2023-04-26T06:50:11;95960.84;;;8.26;100.00
8717;BME280;4395;48.554;8.820;2023-04-26T06:52:14;95954.63;;;8.49;100.00
8717;BME280;4395;48.554;8.820;2023-04-26T06:54:18;95960.97;;;8.71;100.00
8717;BME280;4395;48.554;8.820;2023-04-26T06:56:21;95945.28;;;8.63;100.00
8717;BME280;4395;48.554;8.820;2023-04-26T06:58:24;95948.69;;;8.47;100.00
8717;BME280;4395;48.554;8.820;2023-04-26T07:00:27;95954.19;;;8.40;100.00
8717;BME280;4395;48.554;8.820;2023-04-26T07:02:30;95948.56;;;8.53;100.00
8717;BME280;4395;48.554;8.820;2023-04-26T07:04:33;95950.19;;;8.54;100.00
8717;BME280;4395;48.554;8.820;2023-04-26T07:06:37;95950.44;;;8.53;98.85
8717;BME280;4395;48.554;8.820;2023-04-26T07:08:40;95953.00;;;8.48;91.24
8717;BME280;4395;48.554;8.820;2023-04-26T07:10:44;95952.56;;;8.39;88.50
8717;BME280;4395;48.554;8.820;2023-04-26T07:12:47;95729.56;;;7.06;90.10
8717;BME280;4395;48.554;8.820;2023-04-26T07:14:50;95946.75;;;8.42;94.62
8717;BME280;4395;48.554;8.820;2023-04-26T07:16:53;95951.41;;;8.35;99.95
8717;BME280;4395;48.554;8.820;2023-04-26T07:18:56;95944.28;;;8.41;100.00
8717;BME280;4395;48.554;8.820;2023-04-26T07:20:59;95941.38;;;8.42;100.00
8717;BME280;4395;48.554;8.820;2023-04-26T07:23:02;95942.53;;;8.46;100.00
8717;BME280;4395;48.554;8.820;2023-04-26T07:25:05;95938.59;;;8.37;99.11
8717;BME280;4395;48.554;8.820;2023-04-26T07:27:09;95938.28;;;8.10;100.00
8717;BME280;4395;48.554;8.820;2023-04-26T07:29:12;95938.97;;;8.17;100.00
8717;BME280;4395;48.554;8.820;2023-04-26T07:31:15;95746.84;;;7.27;100.00
8717;BME280;4395;48.554;8.820;2023-04-26T07:33:18;95890.50;;;8.30;98.07
8717;BME280;4395;48.554;8.820;2023-04-26T07:35:21;95928.53;;;8.56;100.00
8717;BME280;4395;48.554;8.820;2023-04-26T07:37:23;95936.19;;;8.64;100.00
8717;BME280;4395;48.554;8.820;2023-04-26T07:39:26;95933.34;;;8.70;99.98
8717;BME280;4395;48.554;8.820;2023-04-26T07:41:29;95939.00;;;8.86;97.72
8717;BME280;4395;48.554;8.820;2023-04-26T07:43:33;95882.00;;;8.45;93.39
8717;BME280;4395;48.554;8.820;2023-04-26T07:45:36;95940.91;;;9.02;94.42
8717;BME280;4395;48.554;8.820;2023-04-26T07:47:39;95943.19;;;9.10;93.17
8717;BME280;4395;48.554;8.820;2023-04-26T07:49:42;95902.53;;;8.85;92.39
8717;BME280;4395;48.554;8.820;2023-04-26T07:51:48;95946.22;;;9.30;91.75
8717;BME280;4395;48.554;8.820;2023-04-26T07:53:51;95949.44;;;9.16;81.87
8717;BME280;4395;48.554;8.820;2023-04-26T07:55:56;95953.91;;;9.10;81.89
8717;BME280;4395;48.554;8.820;2023-04-26T07:57:58;95951.88;;;9.17;85.65
8717;BME280;4395;48.554;8.820;2023-04-26T08:00:04;95957.16;;;9.12;84.97
8717;BME280;4395;48.554;8.820;2023-04-26T08:02:12;95957.81;;;9.19;85.53
8717;BME280;4395;48.554;8.820;2023-04-26T08:04:16;95918.97;;;9.05;84.97
8717;BME280;4395;48.554;8.820;2023-04-26T08:06:19;95954.75;;;9.27;82.72
8717;BME280;4395;48.554;8.820;2023-04-26T08:08:24;95963.19;;;9.19;83.55
8717;BME280;4395;48.554;8.820;2023-04-26T08:10:28;95954.09;;;9.37;85.22
8717;BME280;4395;48.554;8.820;2023-04-26T08:12:32;95966.69;;;9.53;85.34
8717;BME280;4395;48.554;8.820;2023-04-26T08:14:34;95966.94;;;9.85;85.30
8717;BME280;4395;48.554;8.820;2023-04-26T08:16:39;95892.31;;;9.49;83.38
8717;BME280;4395;48.554;8.820;2023-04-26T08:18:42;95971.22;;;10.20;79.05
8717;BME280;4395;48.554;8.820;2023-04-26T08:20:47;95965.75;;;10.15;80.09
8717;BME280;4395;48.554;8.820;2023-04-26T08:22:54;95944.69;;;10.07;78.90
8717;BME280;4395;48.554;8.820;2023-04-26T08:24:57;95961.50;;;10.19;76.34
8717;BME280;4395;48.554;8.820;2023-04-26T08:26:59;95960.22;;;10.05;75.38
8717;BME280;4395;48.554;8.820;2023-04-26T08:29:02;95966.97;;;10.24;76.41
8717;BME280;4395;48.554;8.820;2023-04-26T08:31:05;95968.31;;;10.43;74.35
8717;BME280;4395;48.554;8.820;2023-04-26T08:33:09;95962.38;;;10.63;72.60
8717;BME280;4395;48.554;8.820;2023-04-26T08:35:12;95956.31;;;10.73;71.91
8717;BME280;4395;48.554;8.820;2023-04-26T08:37:15;95959.28;;;10.98;70.27
8717;BME280;4395;48.554;8.820;2023-04-26T08:39:18;95958.22;;;10.99;68.64
8717;BME280;4395;48.554;8.820;2023-04-26T08:41:21;95966.66;;;11.08;69.62
8717;BME280;4395;48.554;8.820;2023-04-26T08:43:25;95954.50;;;11.05;69.53
8717;BME280;4395;48.554;8.820;2023-04-26T08:45:28;95959.47;;;10.91;64.28
8717;BME280;4395;48.554;8.820;2023-04-26T08:47:38;95959.34;;;11.03;65.63
8717;BME280;4395;48.554;8.820;2023-04-26T08:49:44;95955.13;;;10.85;65.99
8717;BME280;4395;48.554;8.820;2023-04-26T08:51:49;95961.66;;;11.21;66.46
8717;BME280;4395;48.554;8.820;2023-04-26T08:53:54;95970.94;;;11.36;63.09
8717;BME280;4395;48.554;8.820;2023-04-26T08:56:01;95964.16;;;11.28;60.71
8717;BME280;4395;48.554;8.820;2023-04-26T08:58:04;95963.53;;;9.73;69.56
8717;BME280;4395;48.554;8.820;2023-04-26T09:00:09;95934.19;;;10.05;70.42
8717;BME280;4395;48.554;8.820;2023-04-26T09:02:16;95962.63;;;11.10;68.81
8717;BME280;4395;48.554;8.820;2023-04-26T09:04:20;95960.84;;;11.48;67.06
8717;BME280;4395;48.554;8.820;2023-04-26T09:06:24;95968.31;;;11.73;64.58
8717;BME280;4395;48.554;8.820;2023-04-26T09:08:28;95967.06;;;11.85;65.47
8717;BME280;4395;48.554;8.820;2023-04-26T09:10:31;95958.63;;;11.77;63.68
8717;BME280;4395;48.554;8.820;2023-04-26T09:12:34;95748.31;;;10.47;64.17
8717;BME280;4395;48.554;8.820;2023-04-26T09:14:37;95956.28;;;11.80;63.46
8717;BME280;4395;48.554;8.820;2023-04-26T09:16:40;95953.03;;;11.78;64.34
8717;BME280;4395;48.554;8.820;2023-04-26T09:18:48;95962.75;;;11.52;64.14
8717;BME280;4395;48.554;8.820;2023-04-26T09:21:03;95948.09;;;11.38;64.48
8717;BME280;4395;48.554;8.820;2023-04-26T09:23:08;95955.78;;;11.24;64.98
8717;BME280;4395;48.554;8.820;2023-04-26T09:25:12;95951.47;;;11.23;68.66
8717;BME280;4395;48.554;8.820;2023-04-26T09:27:15;95953.81;;;11.15;66.33
8717;BME280;4395;48.554;8.820;2023-04-26T09:29:18;95950.41;;;10.98;66.41
8717;BME280;4395;48.554;8.820;2023-04-26T09:31:37;95946.84;;;10.92;67.46
8717;BME280;4395;48.554;8.820;2023-04-26T09:33:58;95949.78;;;10.90;67.46
8717;BME280;4395;48.554;8.820;2023-04-26T09:36:10;95948.53;;;10.98;67.23
8717;BME280;4395;48.554;8.820;2023-04-26T09:38:16;95946.41;;;11.00;66.09
8717;BME280;4395;48.554;8.820;2023-04-26T09:40:20;95948.72;;;11.18;66.63
8717;BME280;4395;48.554;8.820;2023-04-26T09:42:23;95857.53;;;10.85;64.76
8717;BME280;4395;48.554;8.820;2023-04-26T09:44:25;95944.13;;;11.46;63.35
8717;BME280;4395;48.554;8.820;2023-04-26T09:46:30;95936.94;;;11.24;65.56
8717;BME280;4395;48.554;8.820;2023-04-26T09:48:33;95944.25;;;11.29;63.79
8717;BME280;4395;48.554;8.820;2023-04-26T09:50:36;95890.56;;;11.12;65.19
8717;BME280;4395;48.554;8.820;2023-04-26T09:52:42;95943.94;;;11.57;60.41
8717;BME280;4395;48.554;8.820;2023-04-26T09:54:47;95937.38;;;11.11;63.02
8717;BME280;4395;48.554;8.820;2023-04-26T09:56:58;95932.97;;;10.51;66.49
8717;BME280;4395;48.554;8.820;2023-04-26T09:59:01;95942.69;;;11.06;64.54
8717;BME280;4395;48.554;8.820;2023-04-26T10:01:06;95954.66;;;10.93;67.67
8717;BME280;4395;48.554;8.820;2023-04-26T10:03:11;95929.34;;;11.48;64.24
8717;BME280;4395;48.554;8.820;2023-04-26T10:05:15;95906.47;;;11.83;64.10
8717;BME280;4395;48.554;8.820;2023-04-26T10:07:20;95919.78;;;12.00;61.80
8717;BME280;4395;48.554;8.820;2023-04-26T10:09:23;95921.94;;;11.66;63.09
8717;BME280;4395;48.554;8.820;2023-04-26T10:11:28;95923.41;;;11.46;63.07
8717;BME280;4395;48.554;8.820;2023-04-26T10:13:31;95828.31;;;11.31;63.28
8717;BME280;4395;48.554;8.820;2023-04-26T10:15:34;95919.94;;;12.30;60.00
8717;BME280;4395;48.554;8.820;2023-04-26T10:17:37;95917.50;;;11.81;60.09
8717;BME280;4395;48.554;8.820;2023-04-26T10:19:42;95918.16;;;12.56;60.48
8717;BME280;4395;48.554;8.820;2023-04-26T10:21:46;95912.66;;;12.31;59.42
8717;BME280;4395;48.554;8.820;2023-04-26T10:23:50;95918.47;;;12.07;59.96
8717;BME280;4395;48.554;8.820;2023-04-26T10:25:53;95872.53;;;11.45;59.88
8717;BME280;4395;48.554;8.820;2023-04-26T10:27:58;95915.63;;;12.29;55.16
8717;BME280;4395;48.554;8.820;2023-04-26T10:30:06;95656.72;;;11.38;53.31
8717;BME280;4395;48.554;8.820;2023-04-26T10:32:10;95891.34;;;13.02;52.70
8717;BME280;4395;48.554;8.820;2023-04-26T10:34:18;95894.31;;;13.00;50.31
8717;BME280;4395;48.554;8.820;2023-04-26T10:36:21;95901.00;;;12.93;52.78
8717;BME280;4395;48.554;8.820;2023-04-26T10:38:24;95903.28;;;13.36;49.33
8717;BME280;4395;48.554;8.820;2023-04-26T10:40:28;95906.41;;;12.98;49.71
8717;BME280;4395;48.554;8.820;2023-04-26T10:42:31;95905.97;;;13.57;49.83
8717;BME280;4395;48.554;8.820;2023-04-26T10:44:39;95904.84;;;13.98;50.30
8717;BME280;4395;48.554;8.820;2023-04-26T10:46:49;95905.53;;;14.39;48.47
8717;BME280;4395;48.554;8.820;2023-04-26T10:48:52;95896.09;;;14.27;46.03
8717;BME280;4395;48.554;8.820;2023-04-26T10:51:07;95902.63;;;14.15;49.14
8717;BME280;4395;48.554;8.820;2023-04-26T10:53:12;95898.56;;;12.96;50.76
8717;BME280;4395;48.554;8.820;2023-04-26T10:55:37;95910.53;;;13.76;50.83
8717;BME280;4395;48.554;8.820;2023-04-26T10:57:50;95900.84;;;12.37;47.38
8717;BME280;4395;48.554;8.820;2023-04-26T11:00:15;95900.56;;;13.36;51.37
8717;BME280;4395;48.554;8.820;2023-04-26T11:02:43;95906.25;;;13.45;48.37
8717;BME280;4395;48.554;8.820;2023-04-26T11:04:49;95878.06;;;12.85;48.55
8717;BME280;4395;48.554;8.820;2023-04-26T11:06:53;95892.75;;;13.30;47.79
8717;BME280;4395;48.554;8.820;2023-04-26T11:08:59;95894.22;;;12.80;47.80
8717;BME280;4395;48.554;8.820;2023-04-26T11:11:07;95883.00;;;13.13;46.45
8717;BME280;4395;48.554;8.820;2023-04-26T11:13:11;95876.00;;;13.48;48.58
8717;BME280;4395;48.554;8.820;2023-04-26T11:15:15;95882.72;;;13.71;47.87
8717;BME280;4395;48.554;8.820;2023-04-26T11:17:19;95878.66;;;13.78;47.90
8717;BME280;4395;48.554;8.820;2023-04-26T11:19:22;95896.22;;;13.86;46.81